San Diego, CA (92142)

10:02 AM PDT on April 01, 2015 (GMT -0700)
Tierrasanta | | Change Station
CLOSE
Current Station
Personal Weather Station
Location: San Diego, CA
Elevation: 407 ft
Nearby Weather Stations

Elev 407 ft 32.83 °N, 117.10 °W | Updated 2 minutes ago

Partly Cloudy
Partly Cloudy
65.5 °F
Feels Like 65.5 °F
N
0.0
Wind Variable Wind from West
Gusts 3.0 mph

Today
High -- | Low -- °F
--% Chance of Precip.
Yesterday
High -- | Low -- °F
Precip. -- in
6:36 AM 7:08 PM
Waxing Gibbous, 93% visible
Pressure 30.02 in
Visibility 10.0 miles
Clouds Clear
Dew Point 54 °F
Humidity 66%
Rainfall 0.00 in
Snow Depth Not available.
UV 5 out of 12
Pollen 9.50 out of 12
Air Quality Not available.
Flu Activity Not available.
METAR KMYF 011653Z 00000KT 10SM CLR 18/11 A3003 RMK AO2 SLP165 T01780106

More Conditions Fewer Conditions

Pressure 30.02 in
Visibility 10.0 miles
Clouds Clear
Dew Point 54 °F
Humidity 66%
Rainfall 0.00 in
Snow Depth Not available.
UV 5 out of 12
Pollen 9.50 out of 12
Air Quality Not available.
Flu Activity Not available.
METAR KMYF 011653Z 00000KT 10SM CLR 18/11 A3003 RMK AO2 SLP165 T01780106

More Conditions Fewer Conditions

10-Day Weather Forecast

Almanac

Astronomy

Apr. 01, 2015 Rise Set
Actual Time
Civil Twilight
Nautical Twilight
Astronomical Twilight
Moon
Length of Visible Light
Length of Day
Tomorrow will be .
, % of the Moon is Illuminated

Today's Extremes

State Highs State Lows

Community

WunderPhotos

Upload Photos

1,810,011 photos uploaded!

WunderBlogs® & News

Nearby

Air Quality

  Air Quality AQ Index Pollutant
Not available.

Snow Depth

Station Depth Elevation

Earthquake Activity

City Distance Mag. Time & Date
Minimum magnitude displayed is 2.5.

Coastal Water Temperatures

Place Temperature

Stations

Nearby Weather Stations

Station Location Temp. Windchill Dew Point Humidity Wind Precip. Elev Updated Type